createdAt,value
2023-01-25T00:02:11.805Z,44.60
2023-01-25T00:04:38.404Z,50.15
2023-01-25T00:07:05.020Z,48.33
2023-01-25T00:09:31.624Z,47.03
2023-01-25T00:11:58.313Z,49.80
2023-01-25T00:14:25.224Z,49.30
2023-01-25T00:16:51.900Z,47.20
2023-01-25T00:19:18.617Z,46.53
2023-01-25T00:21:45.254Z,47.53
2023-01-25T00:24:11.975Z,44.47
2023-01-25T00:26:39.073Z,47.10
2023-01-25T00:29:05.965Z,43.85
2023-01-25T00:31:32.530Z,45.60
2023-01-25T00:34:26.803Z,49.45
2023-01-25T00:36:57.683Z,47.08
2023-01-25T00:39:26.930Z,44.13
2023-01-25T00:41:54.311Z,46.80
2023-01-25T00:44:21.477Z,47.92
2023-01-25T00:46:48.197Z,49.35
2023-01-25T00:49:23.736Z,49.78
2023-01-25T00:51:51.940Z,44.50
2023-01-25T00:54:19.474Z,50.42
2023-01-25T00:56:46.441Z,47.08
2023-01-25T00:59:13.845Z,46.78
2023-01-25T01:01:41.566Z,49.00
2023-01-25T01:04:08.305Z,52.97
2023-01-25T01:06:39.388Z,52.75
2023-01-25T01:09:07.859Z,56.58
2023-01-25T01:11:34.435Z,55.10
2023-01-25T01:14:00.966Z,54.40
2023-01-25T01:16:27.743Z,53.57
2023-01-25T01:18:54.553Z,52.38
2023-01-25T01:21:21.131Z,48.17
2023-01-25T01:23:47.928Z,54.10
2023-01-25T01:26:16.859Z,52.17
2023-01-25T01:28:43.340Z,58.03
2023-01-25T01:31:18.266Z,56.10
2023-01-25T01:33:45.002Z,54.15
2023-01-25T01:36:14.424Z,50.03
2023-01-25T01:38:42.200Z,51.33
2023-01-25T01:41:09.701Z,50.97
2023-01-25T01:43:37.224Z,50.30
2023-01-25T01:46:09.403Z,47.47
2023-01-25T01:48:51.363Z,52.22
2023-01-25T01:51:43.934Z,51.97
2023-01-25T01:54:23.477Z,50.70
2023-01-25T01:57:02.524Z,53.53
2023-01-25T01:59:37.344Z,51.17
2023-01-25T02:02:05.719Z,51.85
2023-01-25T02:04:33.103Z,52.35
2023-01-25T02:07:09.724Z,48.87
2023-01-25T02:09:36.221Z,51.40
2023-01-25T02:12:04.579Z,52.80
2023-01-25T02:14:31.807Z,49.20
2023-01-25T02:16:59.460Z,49.28
2023-01-25T02:19:42.039Z,48.80
2023-01-25T02:22:14.536Z,53.88
2023-01-25T02:24:50.748Z,50.58
2023-01-25T02:27:18.737Z,50.83
2023-01-25T02:29:45.734Z,52.28
2023-01-25T02:32:13.425Z,50.53
2023-01-25T02:34:39.876Z,57.22
2023-01-25T02:37:06.346Z,51.28
2023-01-25T02:39:32.857Z,49.80
2023-01-25T02:41:59.278Z,51.22
2023-01-25T02:44:28.918Z,51.07
2023-01-25T02:46:55.379Z,47.75
2023-01-25T02:49:22.155Z,49.92
2023-01-25T02:51:51.580Z,55.10
2023-01-25T02:54:19.255Z,51.00
2023-01-25T02:56:45.708Z,57.80
2023-01-25T02:59:12.631Z,55.25
2023-01-25T03:01:41.673Z,53.10
2023-01-25T03:04:09.071Z,52.63
2023-01-25T03:06:36.469Z,50.22
2023-01-25T03:09:04.286Z,56.70
2023-01-25T03:11:30.781Z,52.25
2023-01-25T03:13:57.249Z,51.65
2023-01-25T03:16:23.778Z,51.35
2023-01-25T03:18:53.602Z,54.75
2023-01-25T03:21:21.198Z,50.10
2023-01-25T03:23:48.804Z,56.92
2023-01-25T03:26:17.600Z,60.10
2023-01-25T03:28:44.773Z,54.92
2023-01-25T03:31:14.726Z,55.13
2023-01-25T03:33:42.116Z,56.20
2023-01-25T03:36:09.700Z,54.97
2023-01-25T03:38:36.623Z,57.53
2023-01-25T03:41:04.035Z,59.10
2023-01-25T03:43:30.923Z,59.10
2023-01-25T03:45:59.959Z,58.70
2023-01-25T03:48:27.402Z,56.42
2023-01-25T03:50:56.039Z,59.75
2023-01-25T03:53:23.896Z,62.03
2023-01-25T03:55:50.462Z,58.15
2023-01-25T03:58:17.576Z,57.53
2023-01-25T04:00:44.051Z,57.97
2023-01-25T04:03:10.494Z,61.25
2023-01-25T04:05:36.900Z,61.97
2023-01-25T04:08:03.418Z,64.72
2023-01-25T04:10:29.861Z,62.50
2023-01-25T04:12:56.380Z,58.58
2023-01-25T04:15:22.933Z,59.88
2023-01-25T04:17:49.395Z,58.35
2023-01-25T04:20:16.068Z,60.15
2023-01-25T04:22:42.506Z,66.13
2023-01-25T04:25:09.832Z,65.70
2023-01-25T04:27:36.545Z,64.30
2023-01-25T04:30:03.250Z,61.65
2023-01-25T04:32:29.908Z,60.83
2023-01-25T04:34:56.724Z,61.63
2023-01-25T04:37:23.169Z,61.05
2023-01-25T04:39:49.675Z,61.28
2023-01-25T04:42:16.223Z,60.03
2023-01-25T04:44:42.798Z,60.80
2023-01-25T04:47:09.297Z,59.63
2023-01-25T04:49:35.861Z,58.35
2023-01-25T04:52:02.291Z,59.58
2023-01-25T04:54:28.727Z,59.15
2023-01-25T04:56:55.239Z,58.22
2023-01-25T04:59:21.708Z,59.23
2023-01-25T05:01:48.136Z,59.50
2023-01-25T05:04:14.617Z,64.60
2023-01-25T05:06:41.155Z,58.90
2023-01-25T05:09:07.694Z,60.90
2023-01-25T05:11:34.152Z,62.63
2023-01-25T05:14:00.624Z,64.63
2023-01-25T05:16:27.116Z,63.15
2023-01-25T05:18:55.620Z,64.75
2023-01-25T05:21:22.338Z,65.53
2023-01-25T05:23:48.809Z,66.13
2023-01-25T05:26:15.377Z,70.18
2023-01-25T05:28:41.826Z,67.20
2023-01-25T05:31:08.337Z,67.90
2023-01-25T05:33:34.828Z,67.25
2023-01-25T05:36:01.258Z,66.63
2023-01-25T05:38:29.409Z,64.45
2023-01-25T05:40:58.482Z,62.47
2023-01-25T05:43:24.930Z,63.42
2023-01-25T05:45:54.516Z,65.25
2023-01-25T05:48:20.948Z,66.87
2023-01-25T05:50:47.445Z,69.05
2023-01-25T05:53:13.926Z,71.80
2023-01-25T05:55:40.358Z,68.78
2023-01-25T05:58:06.807Z,71.22
2023-01-25T06:00:33.293Z,69.07
2023-01-25T06:03:02.970Z,71.88
2023-01-25T06:05:29.616Z,75.60
2023-01-25T06:07:56.142Z,65.20
2023-01-25T06:10:22.655Z,75.22
2023-01-25T06:12:49.113Z,70.57
2023-01-25T06:15:15.672Z,71.93
2023-01-25T06:17:42.153Z,69.28
2023-01-25T06:20:09.214Z,68.30
2023-01-25T06:22:35.736Z,74.20
2023-01-25T06:25:02.250Z,76.80
2023-01-25T06:27:28.803Z,75.85
2023-01-25T06:29:55.315Z,76.47
2023-01-25T06:32:21.856Z,75.28
2023-01-25T06:34:48.307Z,74.20
2023-01-25T06:37:14.816Z,74.70
2023-01-25T06:39:41.401Z,77.50
2023-01-25T06:42:07.822Z,76.57
2023-01-25T06:44:34.339Z,71.40
2023-01-25T06:47:00.866Z,71.85
2023-01-25T06:49:27.300Z,72.93
2023-01-25T06:51:54.439Z,73.45
2023-01-25T06:54:20.931Z,72.90
2023-01-25T06:56:47.354Z,77.10
2023-01-25T06:59:13.850Z,75.95
2023-01-25T07:01:40.366Z,72.37
2023-01-25T07:04:10.852Z,78.05
2023-01-25T07:06:37.498Z,88.85
2023-01-25T07:09:06.366Z,86.03
2023-01-25T07:11:33.218Z,78.85
2023-01-25T07:13:59.700Z,83.87
2023-01-25T07:16:26.241Z,78.88
2023-01-25T07:18:53.658Z,77.07
2023-01-25T07:21:23.749Z,78.97
2023-01-25T07:23:51.155Z,78.72
2023-01-25T07:26:25.812Z,76.90
2023-01-25T07:28:54.054Z,78.45
2023-01-25T07:31:20.898Z,88.40
2023-01-25T07:33:52.281Z,82.72
2023-01-25T07:36:19.661Z,79.05
2023-01-25T07:38:46.758Z,96.33
2023-01-25T07:41:13.343Z,90.53
2023-01-25T07:43:39.910Z,87.45
2023-01-25T07:46:09.648Z,82.53
2023-01-25T07:48:36.118Z,87.63
2023-01-25T07:51:05.126Z,91.30
2023-01-25T07:53:31.572Z,89.28
2023-01-25T07:55:58.783Z,89.07
2023-01-25T07:58:25.260Z,91.30
2023-01-25T08:00:51.761Z,98.93
2023-01-25T08:03:18.330Z,93.87
2023-01-25T08:05:44.959Z,88.43
2023-01-25T08:08:11.463Z,92.60
2023-01-25T08:10:38.280Z,90.75
2023-01-25T08:13:04.765Z,90.50
2023-01-25T08:15:31.444Z,89.27
2023-01-25T08:18:01.147Z,82.72
2023-01-25T08:20:27.712Z,91.88
2023-01-25T08:22:54.291Z,80.65
2023-01-25T08:25:20.720Z,88.07
2023-01-25T08:27:47.288Z,82.83
2023-01-25T08:30:13.955Z,82.63
2023-01-25T08:32:40.471Z,74.88
2023-01-25T08:35:08.069Z,76.15
2023-01-25T08:37:34.880Z,77.90
2023-01-25T08:40:01.449Z,73.23
2023-01-25T08:42:27.941Z,74.70
2023-01-25T08:44:56.973Z,76.40
2023-01-25T08:47:23.432Z,79.90
2023-01-25T08:49:49.914Z,69.68
2023-01-25T08:52:16.373Z,77.50
2023-01-25T08:54:42.897Z,69.60
2023-01-25T08:57:09.406Z,73.32
2023-01-25T08:59:35.858Z,82.70
2023-01-25T09:02:02.346Z,71.65
2023-01-25T09:04:28.993Z,83.43
2023-01-25T09:06:55.544Z,79.95
2023-01-25T09:09:22.011Z,83.53
2023-01-25T09:11:48.641Z,86.47
2023-01-25T09:14:15.070Z,94.97
2023-01-25T09:16:41.686Z,83.93
2023-01-25T09:19:08.220Z,100.13
2023-01-25T09:21:35.508Z,94.65
2023-01-25T09:24:06.936Z,95.65
2023-01-25T09:26:39.822Z,80.85
2023-01-25T09:29:06.728Z,88.77
2023-01-25T09:31:33.659Z,91.82
2023-01-25T09:34:00.325Z,100.13
2023-01-25T09:36:27.111Z,87.32
2023-01-25T09:38:55.084Z,97.05
2023-01-25T09:41:58.427Z,104.37
2023-01-25T09:44:32.612Z,90.43
2023-01-25T09:47:10.390Z,92.22
2023-01-25T09:49:58.061Z,86.70
2023-01-25T09:53:02.206Z,83.60
2023-01-25T09:55:30.571Z,72.00
2023-01-25T09:57:58.969Z,73.40
2023-01-25T10:00:36.564Z,73.43
2023-01-25T10:03:11.208Z,68.35
2023-01-25T10:05:44.975Z,69.40
2023-01-25T10:08:31.130Z,68.90
2023-01-25T10:11:22.824Z,71.28
2023-01-25T10:13:49.370Z,73.80
2023-01-25T10:16:26.387Z,83.97
2023-01-25T10:19:22.112Z,82.60
2023-01-25T10:21:56.355Z,73.73
2023-01-25T10:24:54.740Z,78.55
2023-01-25T10:27:53.954Z,67.20
2023-01-25T10:30:26.789Z,72.25
2023-01-25T10:32:57.782Z,75.80
2023-01-25T10:35:35.661Z,73.10
2023-01-25T10:38:11.302Z,78.72
2023-01-25T10:40:49.876Z,77.68
2023-01-25T10:43:21.857Z,73.50
2023-01-25T10:45:49.824Z,75.88
2023-01-25T10:48:29.075Z,69.20
2023-01-25T10:50:57.429Z,73.60
2023-01-25T10:53:40.127Z,76.30
2023-01-25T10:56:09.340Z,80.38
2023-01-25T10:58:35.700Z,79.13
2023-01-25T11:01:03.968Z,82.87
2023-01-25T11:03:36.871Z,84.47
2023-01-25T11:06:03.926Z,87.18
2023-01-25T11:08:30.364Z,94.55
2023-01-25T11:10:57.845Z,90.10
2023-01-25T11:13:33.436Z,95.70
2023-01-25T11:16:00.222Z,90.25
2023-01-25T11:18:29.276Z,90.55
2023-01-25T11:21:06.697Z,89.80
2023-01-25T11:23:33.500Z,90.45
2023-01-25T11:26:17.565Z,97.83
2023-01-25T11:28:45.729Z,102.55
2023-01-25T11:31:14.172Z,90.53
2023-01-25T11:33:41.985Z,97.50
2023-01-25T11:36:33.294Z,91.43
2023-01-25T11:39:18.303Z,90.27
2023-01-25T11:42:16.993Z,94.50
2023-01-25T11:44:52.475Z,85.95
2023-01-25T11:47:49.919Z,89.00
2023-01-25T11:50:34.432Z,91.97
2023-01-25T11:53:23.495Z,84.83
2023-01-25T11:56:01.866Z,76.28
2023-01-25T11:58:46.484Z,84.50
2023-01-25T12:01:37.631Z,81.05
2023-01-25T12:04:42.914Z,96.35
2023-01-25T12:07:20.516Z,94.10
2023-01-25T12:10:15.192Z,93.80
2023-01-25T12:12:54.223Z,93.72
2023-01-25T12:15:36.092Z,101.65
2023-01-25T12:18:20.554Z,100.63
2023-01-25T12:21:30.779Z,97.03
2023-01-25T12:24:13.587Z,94.47
2023-01-25T12:26:53.393Z,91.85
2023-01-25T12:29:41.097Z,98.05
2023-01-25T12:32:16.940Z,94.40
2023-01-25T12:34:49.974Z,95.23
2023-01-25T12:37:32.576Z,111.57
2023-01-25T12:40:03.958Z,99.68
2023-01-25T12:42:40.989Z,109.75
2023-01-25T12:45:15.667Z,102.40
2023-01-25T12:47:52.190Z,101.70
2023-01-25T12:50:38.887Z,109.32
2023-01-25T12:53:17.947Z,116.28
2023-01-25T12:55:45.261Z,123.13
2023-01-25T12:58:19.778Z,115.95
2023-01-25T13:00:59.015Z,112.57
2023-01-25T13:03:47.061Z,121.00
2023-01-25T13:06:26.260Z,129.13
2023-01-25T13:09:11.421Z,133.38
2023-01-25T13:11:45.730Z,127.80
2023-01-25T13:14:18.040Z,126.23
2023-01-25T13:16:50.140Z,125.30
2023-01-25T13:19:21.153Z,118.82
2023-01-25T13:21:49.863Z,115.47
2023-01-25T13:24:20.890Z,121.30
2023-01-25T13:26:53.585Z,114.57
2023-01-25T13:29:28.972Z,126.97
2023-01-25T13:31:58.779Z,131.93
2023-01-25T13:34:34.688Z,137.85
2023-01-25T13:37:03.047Z,129.55
2023-01-25T13:39:29.512Z,131.60
2023-01-25T13:42:10.891Z,141.48
2023-01-25T13:44:43.474Z,125.78
2023-01-25T13:47:17.577Z,130.63
2023-01-25T13:49:53.964Z,138.23
2023-01-25T13:52:22.612Z,130.73
2023-01-25T13:54:53.834Z,134.18
2023-01-25T13:57:23.764Z,125.55
2023-01-25T14:00:10.182Z,133.43
2023-01-25T14:02:40.333Z,135.63
2023-01-25T14:05:17.003Z,129.53
2023-01-25T14:07:46.393Z,128.98
2023-01-25T14:10:18.203Z,133.63
2023-01-25T14:12:45.048Z,138.52
2023-01-25T14:15:25.110Z,144.18
2023-01-25T14:18:32.043Z,137.87
2023-01-25T14:21:21.662Z,141.98
2023-01-25T14:23:49.081Z,141.63
2023-01-25T14:26:25.679Z,136.63
2023-01-25T14:29:01.229Z,125.13
2023-01-25T14:31:34.448Z,129.93
2023-01-25T14:34:00.970Z,131.32
2023-01-25T14:36:29.644Z,123.88
2023-01-25T14:38:56.443Z,119.38
2023-01-25T14:41:29.719Z,125.90
2023-01-25T14:44:04.804Z,138.33
2023-01-25T14:46:32.952Z,134.43
2023-01-25T14:49:20.413Z,144.75
2023-01-25T14:52:12.275Z,133.32
2023-01-25T14:54:50.184Z,140.52
2023-01-25T14:57:41.753Z,133.60
2023-01-25T15:00:17.052Z,129.65
2023-01-25T15:02:53.180Z,120.82
2023-01-25T15:05:31.286Z,124.90
2023-01-25T15:08:13.622Z,131.80
2023-01-25T15:10:54.572Z,126.10
2023-01-25T15:13:26.142Z,112.47
2023-01-25T15:16:00.831Z,114.60
2023-01-25T15:18:51.636Z,130.60
2023-01-25T15:21:26.586Z,119.70
2023-01-25T15:23:55.245Z,129.83
2023-01-25T15:26:27.343Z,126.65
2023-01-25T15:29:13.631Z,139.45
2023-01-25T15:31:40.155Z,125.75
2023-01-25T15:34:14.884Z,122.90
2023-01-25T15:36:41.424Z,123.97
2023-01-25T15:39:13.495Z,118.35
2023-01-25T15:41:40.195Z,125.22
2023-01-25T15:44:07.191Z,119.93
2023-01-25T15:46:35.449Z,119.40
2023-01-25T15:49:05.274Z,117.10
2023-01-25T15:51:33.368Z,115.38
2023-01-25T15:54:01.143Z,126.75
2023-01-25T15:56:31.304Z,118.60
2023-01-25T15:58:59.985Z,120.70
2023-01-25T16:01:30.256Z,132.53
2023-01-25T16:03:58.749Z,147.35
2023-01-25T16:06:34.038Z,125.65
2023-01-25T16:09:02.942Z,130.82
2023-01-25T16:11:29.592Z,134.38
2023-01-25T16:13:56.054Z,134.93
2023-01-25T16:16:24.737Z,142.07
2023-01-25T16:18:51.297Z,152.00
2023-01-25T16:21:18.051Z,145.60
2023-01-25T16:23:44.572Z,150.30
2023-01-25T16:26:29.364Z,156.83
2023-01-25T16:28:56.389Z,153.10
2023-01-25T16:31:32.332Z,152.00
2023-01-25T16:34:01.258Z,153.13
2023-01-25T16:36:28.502Z,148.50
2023-01-25T16:38:55.035Z,157.43
2023-01-25T16:41:21.619Z,183.23
2023-01-25T16:43:49.020Z,163.95
2023-01-25T16:46:23.014Z,159.20
2023-01-25T16:48:51.035Z,159.20
2023-01-25T16:51:20.829Z,169.73
2023-01-25T16:53:48.730Z,171.65
2023-01-25T16:56:26.370Z,155.60
2023-01-25T16:58:55.075Z,181.45
2023-01-25T17:01:23.675Z,172.38
2023-01-25T17:03:51.121Z,175.63
2023-01-25T17:06:38.702Z,173.30
2023-01-25T17:09:21.610Z,178.43
2023-01-25T17:11:49.596Z,186.50
2023-01-25T17:14:17.861Z,173.13
2023-01-25T17:16:44.357Z,175.27
2023-01-25T17:19:18.515Z,187.35
2023-01-25T17:21:45.779Z,188.00
2023-01-25T17:24:17.619Z,205.32
2023-01-25T17:26:44.200Z,202.98
2023-01-25T17:29:11.016Z,199.47
2023-01-25T17:31:38.982Z,193.88
2023-01-25T17:34:07.711Z,194.13
2023-01-25T17:36:34.331Z,207.88
2023-01-25T17:39:07.468Z,203.68
2023-01-25T17:41:34.268Z,190.87
2023-01-25T17:44:00.990Z,204.40
2023-01-25T17:46:32.732Z,196.20
2023-01-25T17:49:01.553Z,194.98
2023-01-25T17:51:28.328Z,190.00
2023-01-25T17:53:54.936Z,170.30
2023-01-25T17:56:21.383Z,182.20
2023-01-25T17:58:47.889Z,182.05
2023-01-25T18:01:20.109Z,200.13
2023-01-25T18:03:47.987Z,184.95
2023-01-25T18:06:16.805Z,188.03
2023-01-25T18:08:45.689Z,206.93
2023-01-25T18:11:15.011Z,193.23
2023-01-25T18:13:42.169Z,180.65
2023-01-25T18:16:10.013Z,176.60
2023-01-25T18:18:38.220Z,182.60
2023-01-25T18:21:08.115Z,177.48
2023-01-25T18:23:36.372Z,178.23
2023-01-25T18:26:03.506Z,181.00
2023-01-25T18:28:29.998Z,171.10
2023-01-25T18:31:01.674Z,177.10
2023-01-25T18:33:28.412Z,184.98
2023-01-25T18:35:55.678Z,190.10
2023-01-25T18:38:22.203Z,199.57
2023-01-25T18:40:48.689Z,199.45
2023-01-25T18:43:15.241Z,187.97
2023-01-25T18:45:41.829Z,196.73
2023-01-25T18:48:10.522Z,185.82
2023-01-25T18:50:40.816Z,197.43
2023-01-25T18:53:08.178Z,208.73
2023-01-25T18:55:35.666Z,201.97
2023-01-25T18:58:02.519Z,193.00
2023-01-25T19:00:29.021Z,198.55
2023-01-25T19:02:55.464Z,201.60
2023-01-25T19:05:22.057Z,193.07
2023-01-25T19:07:48.613Z,193.50
2023-01-25T19:10:15.187Z,197.82
2023-01-25T19:12:41.784Z,194.75
2023-01-25T19:15:08.720Z,208.38
2023-01-25T19:17:35.261Z,186.23
2023-01-25T19:20:02.047Z,198.80
2023-01-25T19:22:29.082Z,208.13
2023-01-25T19:24:55.561Z,191.90
2023-01-25T19:27:22.141Z,199.45
2023-01-25T19:29:48.649Z,202.52
2023-01-25T19:32:15.174Z,182.47
2023-01-25T19:34:41.739Z,170.52
2023-01-25T19:37:08.211Z,187.40
2023-01-25T19:39:34.711Z,181.77
2023-01-25T19:42:01.253Z,168.88
2023-01-25T19:44:27.753Z,174.67
2023-01-25T19:46:54.301Z,164.80
2023-01-25T19:49:20.778Z,184.32
2023-01-25T19:51:47.302Z,190.07
2023-01-25T19:54:16.303Z,197.70
2023-01-25T19:56:44.352Z,204.20
2023-01-25T19:59:14.306Z,199.82
2023-01-25T20:01:41.305Z,219.27
2023-01-25T20:04:07.764Z,214.02
2023-01-25T20:06:35.164Z,231.38
2023-01-25T20:09:01.961Z,191.47
2023-01-25T20:11:31.157Z,207.85
2023-01-25T20:14:03.971Z,247.05
2023-01-25T20:16:32.312Z,213.75
2023-01-25T20:18:59.743Z,231.73
2023-01-25T20:21:28.237Z,239.10
2023-01-25T20:23:56.906Z,260.38
2023-01-25T20:26:29.859Z,249.32
2023-01-25T20:28:57.570Z,277.13
2023-01-25T20:31:29.811Z,253.10
2023-01-25T20:34:02.202Z,257.83
2023-01-25T20:36:30.973Z,274.60
2023-01-25T20:38:57.629Z,293.73
2023-01-25T20:41:25.557Z,293.48
2023-01-25T20:43:57.898Z,300.77
2023-01-25T20:46:24.700Z,303.27
2023-01-25T20:48:53.308Z,284.92
2023-01-25T20:51:20.576Z,298.77
2023-01-25T20:53:48.379Z,326.45
2023-01-25T20:56:15.807Z,315.45
2023-01-25T20:58:42.812Z,330.23
2023-01-25T21:01:14.922Z,329.27
2023-01-25T21:03:41.824Z,318.70
2023-01-25T21:06:08.788Z,299.92
2023-01-25T21:08:35.304Z,316.52
2023-01-25T21:11:01.973Z,332.07
2023-01-25T21:13:29.117Z,273.45
2023-01-25T21:16:04.639Z,300.20
2023-01-25T21:18:33.767Z,292.17
2023-01-25T21:21:22.181Z,297.63
2023-01-25T21:23:50.310Z,283.63
2023-01-25T21:26:22.066Z,323.52
2023-01-25T21:28:49.688Z,302.80
2023-01-25T21:31:22.526Z,350.45
2023-01-25T21:33:49.155Z,312.83
2023-01-25T21:36:17.565Z,337.03
2023-01-25T21:38:46.787Z,301.25
2023-01-25T21:41:16.381Z,333.67
2023-01-25T21:43:43.024Z,327.55
2023-01-25T21:46:09.790Z,319.52
2023-01-25T21:48:36.217Z,313.90
2023-01-25T21:51:02.733Z,306.13
2023-01-25T21:53:29.225Z,271.30
2023-01-25T21:55:56.198Z,263.83
2023-01-25T21:58:22.600Z,268.60
2023-01-25T22:00:49.042Z,276.90
2023-01-25T22:03:15.587Z,310.70
2023-01-25T22:05:42.112Z,310.00
2023-01-25T22:08:08.629Z,278.27
2023-01-25T22:10:35.133Z,287.63
2023-01-25T22:13:01.669Z,270.20
2023-01-25T22:15:28.254Z,284.85
2023-01-25T22:17:54.769Z,300.45
2023-01-25T22:20:21.337Z,301.92
2023-01-25T22:22:47.900Z,258.05
2023-01-25T22:25:14.304Z,244.27
2023-01-25T22:27:55.355Z,270.40
2023-01-25T22:30:21.929Z,225.82
2023-01-25T22:32:48.496Z,261.67
2023-01-25T22:35:15.060Z,259.90
2023-01-25T22:37:41.608Z,230.83
2023-01-25T22:40:09.033Z,253.15
2023-01-25T22:42:35.780Z,291.98
2023-01-25T22:45:02.236Z,230.55
2023-01-25T22:47:28.854Z,241.93
2023-01-25T22:49:55.441Z,238.07
2023-01-25T22:52:21.907Z,251.35
2023-01-25T22:54:48.371Z,236.35
2023-01-25T22:57:15.021Z,220.43
2023-01-25T22:59:41.458Z,216.68
2023-01-25T23:02:08.000Z,266.00
2023-01-25T23:04:34.561Z,237.50
2023-01-25T23:07:01.018Z,213.10
2023-01-25T23:09:27.478Z,236.25
2023-01-25T23:11:53.942Z,240.90
2023-01-25T23:14:20.360Z,238.47
2023-01-25T23:16:47.764Z,216.57
2023-01-25T23:19:14.889Z,212.77
2023-01-25T23:21:41.754Z,216.40
2023-01-25T23:24:08.813Z,210.50
2023-01-25T23:26:36.381Z,226.03
2023-01-25T23:29:05.082Z,235.15
2023-01-25T23:31:31.571Z,229.10
2023-01-25T23:34:00.413Z,252.30
2023-01-25T23:36:35.886Z,248.07
2023-01-25T23:39:02.827Z,242.80
2023-01-25T23:41:30.479Z,231.98
2023-01-25T23:43:57.661Z,213.65
2023-01-25T23:46:25.192Z,223.18
2023-01-25T23:48:52.153Z,249.35
2023-01-25T23:51:19.486Z,258.43
2023-01-25T23:53:46.898Z,216.02
2023-01-25T23:56:16.421Z,240.35
2023-01-25T23:58:46.464Z,240.60
